Time;durP1;ratioP1;P1;durP2;ratioP2;P2;SDS_P1;SDS_P2;PMS_P1;PMS_P2;Temp;Humidity;BMP_temperature;BMP_pressure;BME280_temperature;BME280_humidity;BME280_pressure;Samples;Min_cycle;Max_cycle;Signal;HPM_P1;HPM_P2
2021/12/18 00:02:17;;;;;;;16.50;9.13;;;6.60;99.90;;;;;;4994631;28;20041;-82
2021/12/18 00:04:43;;;;;;;15.95;9.23;;;6.60;99.90;;;;;;4980887;28;20034;-82
2021/12/18 00:07:09;;;;;;;18.92;8.95;;;6.60;99.90;;;;;;4998015;28;20070;-82
2021/12/18 00:09:34;;;;;;;18.92;9.35;;;6.70;99.90;;;;;;4975682;28;20034;-82
2021/12/18 00:12:01;;;;;;;24.13;9.50;;;6.70;99.90;;;;;;4986935;28;20506;-82
2021/12/18 00:14:27;;;;;;;17.58;8.45;;;6.70;99.90;;;;;;4975491;28;20033;-81
2021/12/18 00:16:53;;;;;;;16.15;7.68;;;6.60;99.90;;;;;;4989755;28;20387;-81
2021/12/18 00:19:24;;;;;;;14.63;8.10;;;6.60;99.90;;;;;;4994968;28;20030;-81
2021/12/18 00:21:50;;;;;;;19.15;8.68;;;6.60;99.90;;;;;;4980076;28;20051;-82
2021/12/18 00:24:16;;;;;;;19.67;8.45;;;6.60;99.90;;;;;;4997484;28;20039;-82
2021/12/18 00:26:42;;;;;;;13.80;7.75;;;6.60;99.90;;;;;;4982182;28;20093;-82
2021/12/18 00:29:07;;;;;;;25.40;10.55;;;6.60;99.90;;;;;;4985904;28;20030;-81
2021/12/18 00:31:33;;;;;;;17.95;8.65;;;6.60;99.90;;;;;;4986651;28;20031;-81
2021/12/18 00:33:59;;;;;;;20.02;9.02;;;6.70;99.90;;;;;;4979689;28;20105;-82
2021/12/18 00:36:24;;;;;;;15.82;7.50;;;6.70;99.90;;;;;;4991809;28;20031;-81
2021/12/18 00:38:52;;;;;;;14.68;8.30;;;6.70;99.90;;;;;;4990972;28;20030;-82
2021/12/18 00:42:18;;;;;;;23.90;10.02;;;6.80;99.90;;;;;;4993137;28;20031;-82
2021/12/18 00:44:05;;;;;;;12.90;7.65;;;6.80;99.90;;;;;;4974729;28;20043;-82
2021/12/18 00:46:35;;;;;;;15.68;8.57;;;6.70;99.90;;;;;;4975342;28;20045;-82
2021/12/18 00:49:01;;;;;;;17.23;9.05;;;6.80;99.90;;;;;;4974694;28;20027;-81
2021/12/18 00:51:27;;;;;;;15.25;8.10;;;6.80;99.90;;;;;;4974864;28;20371;-81
2021/12/18 00:53:53;;;;;;;18.48;8.80;;;6.70;99.90;;;;;;4976932;28;20022;-82
2021/12/18 00:56:19;;;;;;;14.02;7.85;;;6.80;99.90;;;;;;4993553;28;20034;-82
2021/12/18 00:58:45;;;;;;;13.65;7.85;;;6.70;99.90;;;;;;4991127;28;20109;-82
2021/12/18 01:01:12;;;;;;;14.98;8.85;;;6.70;99.90;;;;;;4992529;28;20030;-82
2021/12/18 01:03:40;;;;;;;15.13;8.15;;;6.80;99.90;;;;;;4993248;28;20036;-81
2021/12/18 01:06:06;;;;;;;17.40;9.25;;;6.80;99.90;;;;;;4992500;28;20037;-82
2021/12/18 01:08:38;;;;;;;14.90;8.48;;;6.80;99.90;;;;;;4979698;28;20448;-81
2021/12/18 01:13:51;;;;;;;17.75;8.30;;;6.80;99.90;;;;;;4993863;28;20019;-82
2021/12/18 01:16:22;;;;;;;16.40;9.23;;;6.80;99.90;;;;;;4974354;28;20098;-83
2021/12/18 01:24:15;;;;;;;18.17;7.45;;;6.80;99.90;;;;;;4993108;28;20477;-82
2021/12/18 01:26:41;;;;;;;18.13;9.15;;;6.80;99.90;;;;;;4988290;28;20027;-82
2021/12/18 01:29:09;;;;;;;16.85;7.80;;;6.80;99.90;;;;;;4979251;28;20031;-82
2021/12/18 01:31:35;;;;;;;17.45;8.45;;;6.80;99.90;;;;;;4986487;28;20857;-82
2021/12/18 01:34:03;;;;;;;13.77;8.00;;;6.80;99.90;;;;;;4992846;28;20033;-82
2021/12/18 01:36:29;;;;;;;14.70;8.25;;;6.80;99.90;;;;;;4978385;28;20031;-82
2021/12/18 01:38:56;;;;;;;15.50;8.95;;;6.80;99.90;;;;;;4975390;28;20023;-82
2021/12/18 01:41:23;;;;;;;13.85;8.10;;;6.80;99.90;;;;;;4973955;28;20035;-82
2021/12/18 01:46:36;;;;;;;12.60;7.95;;;6.80;99.90;;;;;;4993189;28;20033;-82
2021/12/18 01:52:32;;;;;;;15.57;8.63;;;6.80;99.90;;;;;;4952751;28;20041;-82
2021/12/18 01:54:59;;;;;;;19.05;8.57;;;6.80;99.90;;;;;;4952418;29;20115;-82
2021/12/18 01:57:26;;;;;;;20.63;9.57;;;6.80;99.90;;;;;;4959037;28;20081;-82
2021/12/18 01:59:52;;;;;;;17.65;10.43;;;6.90;99.90;;;;;;4987051;28;20034;-82
2021/12/18 02:02:18;;;;;;;19.88;9.00;;;6.90;99.90;;;;;;4980433;28;20026;-82
2021/12/18 02:04:46;;;;;;;15.15;8.18;;;6.90;99.90;;;;;;4989553;28;20031;-82
2021/12/18 02:07:13;;;;;;;17.40;9.25;;;6.90;99.90;;;;;;4993195;28;20069;-82
2021/12/18 02:12:33;;;;;;;13.00;7.68;;;6.90;99.90;;;;;;4991862;28;20030;-81
2021/12/18 02:20:38;;;;;;;15.35;8.95;;;6.90;99.90;;;;;;4980505;28;20616;-82
2021/12/18 02:23:04;;;;;;;17.65;8.60;;;6.90;99.90;;;;;;4973904;28;20030;-82
2021/12/18 02:25:34;;;;;;;15.75;8.90;;;6.90;99.90;;;;;;4983657;28;20113;-82
2021/12/18 02:28:01;;;;;;;18.98;8.60;;;6.80;99.90;;;;;;4986033;28;20063;-82
2021/12/18 02:30:27;;;;;;;21.67;10.20;;;6.80;99.90;;;;;;4980609;28;20541;-82
2021/12/18 02:32:57;;;;;;;17.88;9.38;;;6.80;99.90;;;;;;4992759;28;20058;-82
2021/12/18 02:35:28;;;;;;;16.55;8.80;;;6.80;99.90;;;;;;4980644;28;20030;-82
2021/12/18 02:38:12;;;;;;;22.27;10.13;;;6.90;99.90;;;;;;4996938;28;20101;-81
2021/12/18 02:43:15;;;;;;;18.20;9.80;;;6.90;99.90;;;;;;4978346;28;20550;-82
2021/12/18 02:45:41;;;;;;;22.90;10.38;;;6.80;99.90;;;;;;4978981;28;20549;-82
2021/12/18 02:48:06;;;;;;;14.40;9.13;;;6.80;99.90;;;;;;4986608;28;20018;-82
2021/12/18 02:50:32;;;;;;;19.67;9.05;;;6.90;99.90;;;;;;4996485;28;20388;-82
2021/12/18 02:52:58;;;;;;;16.77;8.15;;;6.90;99.90;;;;;;4987472;28;20023;-82
2021/12/18 02:55:23;;;;;;;16.30;8.15;;;6.90;99.90;;;;;;4977961;28;20041;-82
2021/12/18 02:57:51;;;;;;;19.60;10.15;;;6.90;99.90;;;;;;4975786;28;20035;-82
2021/12/18 03:00:17;;;;;;;13.73;7.95;;;6.90;99.90;;;;;;4981923;28;20502;-82
2021/12/18 03:02:45;;;;;;;16.25;8.77;;;7.00;99.90;;;;;;5004535;28;20041;-82
2021/12/18 03:05:18;;;;;;;18.92;9.73;;;7.00;99.90;;;;;;4984660;28;20027;-82
2021/12/18 03:07:47;;;;;;;17.83;9.07;;;6.90;99.90;;;;;;4992700;28;20525;-82
2021/12/18 03:19:06;;;;;;;19.65;9.57;;;7.00;99.90;;;;;;4986245;28;20022;-82
2021/12/18 03:21:57;;;;;;;16.52;9.00;;;7.00;99.90;;;;;;4991042;28;20057;-82
2021/12/18 03:24:09;;;;;;;16.30;9.00;;;7.00;99.90;;;;;;4995591;28;20037;-82
2021/12/18 03:26:35;;;;;;;14.45;9.02;;;7.00;99.90;;;;;;4988236;28;20080;-82
2021/12/18 03:29:00;;;;;;;19.35;8.27;;;6.90;99.90;;;;;;4993718;28;20105;-82
2021/12/18 03:31:33;;;;;;;13.90;8.52;;;6.90;99.90;;;;;;4982437;28;20037;-82
2021/12/18 03:33:58;;;;;;;15.68;8.98;;;7.00;99.90;;;;;;4990548;28;20030;-82
2021/12/18 03:36:26;;;;;;;19.55;8.10;;;6.90;99.90;;;;;;4993524;28;20030;-82
2021/12/18 03:38:51;;;;;;;16.60;9.30;;;6.90;99.90;;;;;;4991621;28;20045;-81
2021/12/18 03:41:17;;;;;;;16.45;8.93;;;6.90;99.90;;;;;;4975933;28;20022;-82
2021/12/18 03:43:43;;;;;;;19.10;9.32;;;7.00;99.90;;;;;;4976071;28;20101;-82
2021/12/18 03:46:08;;;;;;;15.38;9.15;;;6.90;99.90;;;;;;4987721;28;20450;-82
2021/12/18 03:48:34;;;;;;;17.75;10.32;;;7.00;99.90;;;;;;4988861;28;20402;-82
2021/12/18 03:51:00;;;;;;;18.92;10.73;;;7.00;99.90;;;;;;4993085;28;20085;-82
2021/12/18 03:53:26;;;;;;;21.60;10.98;;;6.90;99.90;;;;;;4975806;28;20027;-82
2021/12/18 03:55:52;;;;;;;21.00;11.43;;;6.90;99.90;;;;;;4976885;28;20382;-82
2021/12/18 03:58:17;;;;;;;19.63;10.73;;;6.90;99.90;;;;;;4993778;28;20034;-82
2021/12/18 04:00:49;;;;;;;18.42;9.98;;;6.80;99.90;;;;;;4994601;28;20058;-82
2021/12/18 04:03:14;;;;;;;17.60;10.43;;;6.80;99.90;;;;;;4994551;28;20030;-82
2021/12/18 04:05:41;;;;;;;21.13;10.10;;;6.80;99.90;;;;;;4990440;28;20053;-81
2021/12/18 04:08:09;;;;;;;15.27;8.60;;;6.70;99.90;;;;;;4983991;28;20026;-82
2021/12/18 04:10:38;;;;;;;14.10;7.75;;;6.70;99.90;;;;;;4991832;28;20494;-82
2021/12/18 04:13:05;;;;;;;14.27;8.50;;;6.70;99.90;;;;;;4974322;28;20114;-82
2021/12/18 04:15:34;;;;;;;16.08;8.85;;;6.60;99.90;;;;;;4983816;28;20493;-82
2021/12/18 04:17:59;;;;;;;13.23;8.70;;;6.60;99.90;;;;;;4981482;28;20023;-82
2021/12/18 04:20:25;;;;;;;15.25;8.95;;;6.60;99.90;;;;;;4979853;28;20133;-82
2021/12/18 04:22:51;;;;;;;13.35;8.48;;;6.60;99.90;;;;;;4990212;28;20407;-82
2021/12/18 04:25:19;;;;;;;17.88;9.40;;;6.60;99.90;;;;;;4974050;28;20035;-82
2021/12/18 04:27:45;;;;;;;14.25;8.20;;;6.60;99.90;;;;;;4989824;28;20022;-82
2021/12/18 04:30:13;;;;;;;16.63;9.25;;;6.60;99.90;;;;;;4993847;28;20147;-81
2021/12/18 04:32:38;;;;;;;15.73;9.30;;;6.60;99.90;;;;;;4994007;28;20022;-82
2021/12/18 04:35:05;;;;;;;15.43;8.80;;;6.60;99.90;;;;;;4981845;28;20379;-82
2021/12/18 04:37:31;;;;;;;15.60;9.13;;;6.50;99.90;;;;;;4975063;28;20089;-82
2021/12/18 04:39:57;;;;;;;16.88;9.30;;;6.50;99.90;;;;;;4985781;28;20133;-82
2021/12/18 04:42:23;;;;;;;16.02;9.27;;;6.60;99.90;;;;;;4994252;28;20493;-82
2021/12/18 04:44:50;;;;;;;13.00;7.88;;;6.50;99.90;;;;;;4982385;28;20027;-82
2021/12/18 04:47:16;;;;;;;16.95;9.93;;;6.60;99.90;;;;;;4977867;28;20482;-82
2021/12/18 04:49:42;;;;;;;18.45;11.10;;;6.60;99.90;;;;;;4981807;28;20081;-81
2021/12/18 04:52:08;;;;;;;20.10;10.27;;;6.50;99.90;;;;;;4979166;28;20470;-82
2021/12/18 04:54:34;;;;;;;15.45;9.82;;;6.50;99.90;;;;;;4982994;28;20030;-82
2021/12/18 04:57:00;;;;;;;18.25;9.57;;;6.50;99.90;;;;;;4973687;28;20181;-82
2021/12/18 04:59:27;;;;;;;12.52;8.48;;;6.50;99.90;;;;;;4974614;28;20114;-82
2021/12/18 05:01:53;;;;;;;13.85;8.38;;;6.60;99.90;;;;;;4979505;28;20041;-82
2021/12/18 05:04:20;;;;;;;11.13;7.93;;;6.60;99.90;;;;;;4991830;28;20541;-82
2021/12/18 05:06:47;;;;;;;17.35;9.45;;;6.60;99.90;;;;;;4981233;28;20513;-82
2021/12/18 05:09:16;;;;;;;8.13;5.50;;;6.60;99.90;;;;;;4983319;28;20378;-82
2021/12/18 05:11:42;;;;;;;8.13;5.25;;;6.60;99.90;;;;;;4993809;28;20480;-82
2021/12/18 05:14:09;;;;;;;10.80;4.90;;;6.70;99.90;;;;;;4994029;28;20022;-82
2021/12/18 05:16:35;;;;;;;6.55;5.03;;;6.60;99.90;;;;;;4993500;28;20080;-82
2021/12/18 05:19:02;;;;;;;8.18;5.95;;;6.60;99.90;;;;;;4993535;28;20098;-82
2021/12/18 05:21:28;;;;;;;9.90;4.80;;;6.60;99.90;;;;;;4993517;28;20494;-82
2021/12/18 05:23:54;;;;;;;9.60;6.30;;;6.60;99.90;;;;;;4993591;28;20543;-82
2021/12/18 05:26:20;;;;;;;8.45;6.20;;;6.60;99.90;;;;;;4992507;28;20121;-82
2021/12/18 05:28:46;;;;;;;8.93;5.25;;;6.60;99.90;;;;;;4983141;28;20045;-82
2021/12/18 05:31:16;;;;;;;9.32;5.82;;;6.50;99.90;;;;;;4992756;28;20490;-82
2021/12/18 05:33:43;;;;;;;9.38;6.50;;;6.50;99.90;;;;;;4981624;28;20358;-82
2021/12/18 05:36:30;;;;;;;9.32;6.47;;;6.50;99.90;;;;;;4991887;28;20064;-82
2021/12/18 05:38:58;;;;;;;9.43;6.80;;;6.60;99.90;;;;;;4974122;28;20038;-82
2021/12/18 05:41:24;;;;;;;12.07;6.68;;;6.50;99.90;;;;;;4978874;28;20030;-82
2021/12/18 05:43:49;;;;;;;9.70;7.35;;;6.50;99.90;;;;;;4978441;28;20038;-82
2021/12/18 05:46:17;;;;;;;8.55;6.53;;;6.50;99.90;;;;;;4974213;28;20275;-82
2021/12/18 05:48:42;;;;;;;10.05;7.35;;;6.50;99.90;;;;;;4974031;28;20034;-82
2021/12/18 05:51:09;;;;;;;10.57;6.65;;;6.50;99.90;;;;;;4979230;28;20031;-82
2021/12/18 05:53:34;;;;;;;13.63;7.20;;;6.50;99.90;;;;;;4980191;28;20019;-82
2021/12/18 05:56:01;;;;;;;10.52;6.90;;;6.50;99.90;;;;;;4973990;28;20030;-82
2021/12/18 05:58:27;;;;;;;8.13;6.35;;;6.50;99.90;;;;;;4975045;28;20027;-82
2021/12/18 06:00:52;;;;;;;9.38;6.45;;;6.50;99.90;;;;;;4979346;28;20022;-83
2021/12/18 06:03:18;;;;;;;12.40;6.90;;;6.40;99.90;;;;;;4994077;28;20022;-82
2021/12/18 06:05:47;;;;;;;10.10;7.40;;;6.40;99.90;;;;;;4997020;28;20466;-82
2021/12/18 06:08:14;;;;;;;9.60;6.32;;;6.40;99.90;;;;;;4997252;28;20457;-83
2021/12/18 06:10:40;;;;;;;9.80;6.63;;;6.50;99.90;;;;;;4994113;28;20027;-83
2021/12/18 06:13:05;;;;;;;9.73;7.10;;;6.50;99.90;;;;;;4995113;28;20486;-82
2021/12/18 06:15:32;;;;;;;11.05;7.20;;;6.40;99.90;;;;;;4989282;28;20054;-82
2021/12/18 06:17:58;;;;;;;11.02;7.18;;;6.40;99.90;;;;;;4982039;28;20107;-82
2021/12/18 06:20:25;;;;;;;8.57;6.18;;;6.40;99.90;;;;;;4994988;28;20050;-82
2021/12/18 06:22:57;;;;;;;11.90;7.30;;;6.40;99.90;;;;;;4995710;28;20022;-82
2021/12/18 06:25:23;;;;;;;10.65;6.80;;;6.40;99.90;;;;;;4985774;28;20043;-82
2021/12/18 06:27:50;;;;;;;13.48;7.65;;;6.40;99.90;;;;;;4988620;28;20094;-82
2021/12/18 06:30:17;;;;;;;10.23;7.43;;;6.50;99.90;;;;;;4985897;28;20023;-82
2021/12/18 06:32:43;;;;;;;11.15;7.22;;;6.50;99.90;;;;;;4992253;28;20019;-82
2021/12/18 06:35:09;;;;;;;10.85;7.72;;;6.50;99.90;;;;;;4993799;28;20089;-83
2021/12/18 06:37:35;;;;;;;9.48;6.47;;;6.50;99.90;;;;;;4985903;28;20359;-82
2021/12/18 06:40:04;;;;;;;10.45;6.70;;;6.50;99.90;;;;;;4982078;28;20084;-82
2021/12/18 06:42:30;;;;;;;13.05;8.60;;;6.40;99.90;;;;;;4992899;28;20089;-82
2021/12/18 06:44:55;;;;;;;12.13;8.35;;;6.40;99.90;;;;;;4983621;28;20484;-82
2021/12/18 06:47:21;;;;;;;14.20;9.10;;;6.40;99.90;;;;;;4988441;28;20026;-82
2021/12/18 06:49:46;;;;;;;13.27;8.95;;;6.50;99.90;;;;;;4986650;28;20064;-81
2021/12/18 06:52:12;;;;;;;10.60;7.50;;;6.50;99.90;;;;;;4976335;28;20031;-82
2021/12/18 06:54:38;;;;;;;11.77;8.45;;;6.40;99.90;;;;;;4988017;28;20027;-82
2021/12/18 06:57:03;;;;;;;12.88;9.40;;;6.40;99.90;;;;;;4992598;28;20469;-82
2021/12/18 06:59:30;;;;;;;12.00;7.75;;;6.40;99.90;;;;;;4993747;28;20027;-82
2021/12/18 07:01:56;;;;;;;9.38;6.60;;;6.40;99.90;;;;;;4981401;28;20049;-82
2021/12/18 07:04:24;;;;;;;11.10;7.63;;;6.40;99.90;;;;;;4976490;28;20031;-81
2021/12/18 07:06:54;;;;;;;11.15;7.70;;;6.40;99.90;;;;;;4990974;28;20490;-82
2021/12/18 07:09:20;;;;;;;11.90;7.53;;;6.40;99.90;;;;;;4975576;28;20026;-82
2021/12/18 07:11:46;;;;;;;10.60;6.97;;;6.40;99.90;;;;;;4975198;28;20027;-82
2021/12/18 07:14:13;;;;;;;12.43;8.13;;;6.50;99.90;;;;;;4986364;28;20045;-82
2021/12/18 07:16:39;;;;;;;12.40;7.38;;;6.40;99.90;;;;;;4992200;28;20056;-82
2021/12/18 07:19:05;;;;;;;12.63;7.32;;;6.40;99.90;;;;;;4983425;28;20034;-82
2021/12/18 07:21:30;;;;;;;10.10;6.88;;;6.50;99.90;;;;;;4949211;28;1012888;-82
2021/12/18 07:23:58;;;;;;;12.27;6.75;;;6.50;99.90;;;;;;4976443;28;20035;-82
2021/12/18 07:26:24;;;;;;;9.88;6.28;;;6.50;99.90;;;;;;4995560;28;20421;-82
2021/12/18 07:28:49;;;;;;;7.72;5.00;;;6.50;99.90;;;;;;4986853;28;20134;-82
2021/12/18 07:31:15;;;;;;;9.07;5.13;;;6.50;99.90;;;;;;4975750;28;20039;-81
2021/12/18 07:33:43;;;;;;;10.60;5.72;;;6.40;99.90;;;;;;5016565;28;20049;-81
2021/12/18 07:36:08;;;;;;;7.25;5.30;;;6.40;99.90;;;;;;4994286;28;20034;-82
2021/12/18 07:38:35;;;;;;;8.63;5.47;;;6.40;99.90;;;;;;4992706;28;20475;-82
2021/12/18 07:41:00;;;;;;;12.55;6.30;;;6.40;99.90;;;;;;4993996;28;20046;-81
2021/12/18 07:43:28;;;;;;;6.38;4.90;;;6.40;99.90;;;;;;4991372;28;20423;-81
2021/12/18 07:45:53;;;;;;;6.47;4.32;;;6.40;99.90;;;;;;4981606;28;20491;-81
2021/12/18 07:48:19;;;;;;;6.03;4.43;;;6.50;99.90;;;;;;4986644;28;20077;-81
2021/12/18 07:50:45;;;;;;;8.23;4.18;;;6.50;99.90;;;;;;4993791;28;20498;-82
2021/12/18 07:53:11;;;;;;;3.53;3.13;;;6.50;99.90;;;;;;4976400;28;20053;-81
2021/12/18 07:55:37;;;;;;;7.63;3.58;;;6.50;99.90;;;;;;4995397;28;20029;-82
2021/12/18 07:58:03;;;;;;;3.85;3.10;;;6.60;99.90;;;;;;4989722;28;20043;-82
2021/12/18 08:00:29;;;;;;;5.57;3.55;;;6.60;99.90;;;;;;4985800;28;20117;-82
2021/12/18 08:02:54;;;;;;;5.15;3.30;;;6.50;99.90;;;;;;4992357;28;20037;-82
2021/12/18 08:05:20;;;;;;;7.80;4.45;;;6.60;99.90;;;;;;4989646;28;20027;-82
2021/12/18 08:07:46;;;;;;;8.30;4.85;;;6.60;99.90;;;;;;4975730;28;20101;-82
2021/12/18 08:10:12;;;;;;;24.10;9.93;;;6.50;99.90;;;;;;4977960;28;20038;-82
2021/12/18 08:12:38;;;;;;;10.98;6.05;;;6.60;99.90;;;;;;4994799;28;20390;-82
2021/12/18 08:15:04;;;;;;;6.40;4.20;;;6.60;99.90;;;;;;4991328;28;20027;-82
2021/12/18 08:17:34;;;;;;;9.00;5.68;;;6.60;99.90;;;;;;4981690;28;20080;-82
2021/12/18 08:20:00;;;;;;;6.53;4.40;;;6.60;99.90;;;;;;4987358;28;20076;-82
2021/12/18 08:22:26;;;;;;;12.50;6.68;;;6.60;99.90;;;;;;4988736;28;20121;-82
2021/12/18 08:24:51;;;;;;;7.28;3.83;;;6.60;99.90;;;;;;4980458;28;20069;-83
2021/12/18 08:27:17;;;;;;;5.00;2.85;;;6.60;99.90;;;;;;4987452;28;20108;-83
2021/12/18 08:29:43;;;;;;;5.18;3.05;;;6.60;99.90;;;;;;4974729;28;20106;-82
2021/12/18 08:32:09;;;;;;;3.75;2.70;;;6.60;99.90;;;;;;4982383;28;20226;-82
2021/12/18 08:34:34;;;;;;;4.38;2.50;;;6.60;99.90;;;;;;4975432;28;20027;-82
2021/12/18 08:37:00;;;;;;;3.97;2.65;;;6.60;99.90;;;;;;4987136;28;20382;-82
2021/12/18 08:39:26;;;;;;;3.72;1.90;;;6.70;99.90;;;;;;4985750;28;20516;-82
2021/12/18 08:41:51;;;;;;;1.60;1.50;;;6.70;99.90;;;;;;4976940;28;20037;-82
2021/12/18 08:44:17;;;;;;;2.30;1.40;;;6.70;99.90;;;;;;4985586;28;20037;-83
2021/12/18 08:46:42;;;;;;;2.10;1.77;;;6.70;99.90;;;;;;4982674;28;20605;-82
2021/12/18 08:49:10;;;;;;;2.08;1.58;;;6.80;99.90;;;;;;4993561;28;20018;-82
2021/12/18 08:51:37;;;;;;;3.70;1.55;;;6.80;99.90;;;;;;4993764;28;20022;-82
2021/12/18 08:54:07;;;;;;;1.80;1.60;;;6.80;99.90;;;;;;4992508;28;20031;-83
2021/12/18 08:56:34;;;;;;;1.27;1.17;;;6.80;99.90;;;;;;4993467;28;20044;-83
2021/12/18 08:59:00;;;;;;;1.85;1.30;;;6.90;99.90;;;;;;4993913;28;20034;-82
2021/12/18 09:01:30;;;;;;;4.90;3.17;;;6.90;99.90;;;;;;4986903;28;20042;-82
2021/12/18 09:03:56;;;;;;;2.25;1.80;;;6.90;99.90;;;;;;4975409;28;20031;-82
2021/12/18 09:06:22;;;;;;;2.58;1.80;;;6.90;99.90;;;;;;4993877;28;20045;-83
2021/12/18 09:08:49;;;;;;;1.90;1.70;;;7.00;99.90;;;;;;4999759;28;20088;-82
2021/12/18 09:11:15;;;;;;;2.45;1.73;;;6.90;99.90;;;;;;4978362;28;20041;-82
2021/12/18 09:13:43;;;;;;;7.30;1.30;;;7.00;99.90;;;;;;4974964;28;20022;-82
2021/12/18 09:16:08;;;;;;;3.10;1.90;;;7.00;99.90;;;;;;4987770;28;20413;-81
2021/12/18 09:18:34;;;;;;;2.42;1.52;;;7.00;99.90;;;;;;4993408;28;20065;-81
2021/12/18 09:21:01;;;;;;;1.80;1.60;;;7.00;99.90;;;;;;4984641;28;20048;-81
2021/12/18 09:23:26;;;;;;;1.77;1.50;;;7.10;99.90;;;;;;4992275;28;20030;-81
2021/12/18 09:25:54;;;;;;;1.52;1.42;;;7.10;99.90;;;;;;4981708;28;20038;-81
2021/12/18 09:28:19;;;;;;;1.65;1.30;;;7.10;99.90;;;;;;4982827;28;20027;-81
2021/12/18 09:30:45;;;;;;;1.55;1.45;;;7.00;99.90;;;;;;4986757;28;20068;-81
2021/12/18 09:33:13;;;;;;;1.83;1.38;;;7.10;99.90;;;;;;4988546;28;20092;-81
2021/12/18 09:35:40;;;;;;;1.50;1.40;;;7.10;99.90;;;;;;4981421;28;20022;-81
2021/12/18 09:38:06;;;;;;;1.45;1.35;;;7.20;99.90;;;;;;4995105;28;20022;-81
2021/12/18 09:40:32;;;;;;;1.50;1.20;;;7.20;99.90;;;;;;5001540;28;20026;-81
2021/12/18 09:42:58;;;;;;;2.47;1.25;;;7.20;99.90;;;;;;4991958;28;20540;-81
2021/12/18 09:45:25;;;;;;;2.15;1.50;;;7.20;99.90;;;;;;4991377;28;20069;-81
2021/12/18 09:47:51;;;;;;;2.20;1.38;;;7.30;99.90;;;;;;4988992;28;20486;-80
2021/12/18 09:50:21;;;;;;;1.52;1.30;;;7.30;99.90;;;;;;4980557;28;20118;-81
2021/12/18 09:52:47;;;;;;;1.60;1.50;;;7.40;99.90;;;;;;4987409;28;20029;-81
2021/12/18 09:55:15;;;;;;;1.45;1.35;;;7.40;99.90;;;;;;4985459;28;20467;-81
2021/12/18 09:57:41;;;;;;;6.50;1.50;;;7.40;99.90;;;;;;5007595;28;20026;-81
2021/12/18 10:00:17;;;;;;;1.80;1.33;;;7.40;99.90;;;;;;4992629;28;20026;-82
2021/12/18 10:02:42;;;;;;;3.22;1.25;;;7.50;99.90;;;;;;4985544;28;20022;-81
2021/12/18 10:05:25;;;;;;;1.50;1.23;;;7.50;99.90;;;;;;4976223;28;20106;-81
2021/12/18 10:08:15;;;;;;;2.58;1.70;;;7.60;99.90;;;;;;4973758;28;20079;-81
2021/12/18 10:11:05;;;;;;;1.55;1.45;;;7.60;99.90;;;;;;4983042;28;20069;-81
2021/12/18 10:13:59;;;;;;;1.75;1.23;;;7.60;99.90;;;;;;4984465;28;20089;-81
2021/12/18 10:16:29;;;;;;;0.85;0.85;;;7.70;99.90;;;;;;5001478;28;20061;-81
2021/12/18 10:18:56;;;;;;;1.38;1.20;;;7.70;99.90;;;;;;5004474;28;20034;-81
2021/12/18 10:21:24;;;;;;;2.42;1.17;;;7.60;99.90;;;;;;4987689;28;20047;-81
2021/12/18 10:23:51;;;;;;;3.05;1.05;;;7.60;99.90;;;;;;4993030;28;20285;-81
2021/12/18 10:26:31;;;;;;;1.35;1.25;;;7.60;99.90;;;;;;4992600;28;20030;-81
2021/12/18 10:28:57;;;;;;;1.90;1.25;;;7.70;99.90;;;;;;4991533;28;20088;-81
2021/12/18 10:31:40;;;;;;;5.65;3.05;;;7.70;99.90;;;;;;4988630;28;20030;-81
2021/12/18 10:34:24;;;;;;;5.45;3.03;;;7.70;99.90;;;;;;4992834;28;20050;-81
2021/12/18 10:37:10;;;;;;;3.72;2.08;;;7.70;99.90;;;;;;4979434;28;20478;-81
2021/12/18 10:39:38;;;;;;;1.25;1.13;;;7.70;99.90;;;;;;4981046;28;20577;-81
2021/12/18 10:42:40;;;;;;;1.27;1.20;;;7.80;99.90;;;;;;4973141;28;20438;-80
2021/12/18 10:45:12;;;;;;;1.70;1.20;;;7.80;99.90;;;;;;4989959;28;20030;-81
2021/12/18 10:47:46;;;;;;;4.63;1.17;;;7.90;99.90;;;;;;4992750;28;20022;-81
2021/12/18 10:50:38;;;;;;;5.90;1.38;;;7.90;99.90;;;;;;4975528;28;20029;-81
2021/12/18 10:53:05;;;;;;;1.42;1.30;;;7.90;99.90;;;;;;4975352;28;20034;-80
2021/12/18 10:55:34;;;;;;;2.75;1.20;;;8.00;99.90;;;;;;4983199;28;20034;-81
2021/12/18 10:58:02;;;;;;;1.60;1.50;;;8.00;99.90;;;;;;4994572;28;20038;-81
2021/12/18 11:00:44;;;;;;;1.27;1.17;;;8.10;99.90;;;;;;4987719;28;20031;-81
2021/12/18 11:03:27;;;;;;;0.82;0.82;;;8.00;99.90;;;;;;4982584;28;20097;-81
2021/12/18 11:06:11;;;;;;;0.75;0.75;;;8.00;99.90;;;;;;4995523;28;20030;-81
2021/12/18 11:08:54;;;;;;;1.33;1.00;;;8.00;99.90;;;;;;4977758;28;20031;-82
2021/12/18 11:14:08;;;;;;;0.85;0.85;;;8.00;99.90;;;;;;4987433;28;20027;-82
2021/12/18 11:16:38;;;;;;;0.95;0.95;;;8.00;99.90;;;;;;4984250;28;20034;-81
2021/12/18 11:19:12;;;;;;;0.63;0.63;;;8.00;99.90;;;;;;4988489;28;20084;-80
2021/12/18 11:21:45;;;;;;;1.40;0.73;;;8.00;99.90;;;;;;4975761;28;20043;-82
2021/12/18 11:24:12;;;;;;;0.90;0.90;;;8.00;99.90;;;;;;4989345;28;20133;-81
2021/12/18 11:26:50;;;;;;;3.83;1.17;;;8.00;99.90;;;;;;4993671;28;20027;-82
2021/12/18 11:29:28;;;;;;;1.52;1.42;;;8.10;99.90;;;;;;4992025;28;20124;-82
2021/12/18 11:31:55;;;;;;;2.22;1.38;;;8.10;99.90;;;;;;4979247;28;20385;-82
2021/12/18 11:34:21;;;;;;;4.10;1.73;;;8.20;99.90;;;;;;4994934;28;20031;-82
2021/12/18 11:36:49;;;;;;;2.28;1.35;;;8.20;99.90;;;;;;4978258;28;20029;-82
2021/12/18 11:39:19;;;;;;;2.33;1.25;;;8.20;99.90;;;;;;5010169;28;20042;-82
2021/12/18 11:41:51;;;;;;;1.38;1.27;;;8.20;99.90;;;;;;4994673;28;20049;-82
2021/12/18 11:44:56;;;;;;;1.95;1.55;;;8.30;99.90;;;;;;4994369;28;20486;-82
2021/12/18 11:47:38;;;;;;;1.02;1.00;;;8.40;99.90;;;;;;4988171;28;20023;-82
2021/12/18 11:50:09;;;;;;;1.23;1.00;;;8.40;99.90;;;;;;4987064;28;20059;-82
2021/12/18 11:52:56;;;;;;;3.25;1.10;;;8.40;99.90;;;;;;4993853;28;20034;-82
2021/12/18 11:55:23;;;;;;;0.65;0.65;;;8.40;99.90;;;;;;4991365;28;20536;-82
2021/12/18 11:58:00;;;;;;;0.90;0.70;;;8.40;99.90;;;;;;4982066;28;20026;-82
2021/12/18 12:00:39;;;;;;;1.38;0.60;;;8.40;99.90;;;;;;4980116;28;20069;-82
2021/12/18 12:03:10;;;;;;;0.82;0.80;;;8.40;99.90;;;;;;4979856;28;20031;-82
2021/12/18 12:05:42;;;;;;;1.55;0.80;;;8.40;99.90;;;;;;4983468;28;20413;-82
2021/12/18 12:08:36;;;;;;;0.82;0.60;;;8.40;99.90;;;;;;5009622;28;20474;-82
2021/12/18 12:11:25;;;;;;;0.82;0.80;;;8.40;99.90;;;;;;5007204;28;20090;-81
2021/12/18 12:13:55;;;;;;;1.38;0.90;;;8.30;99.90;;;;;;4989778;28;20034;-82
2021/12/18 12:16:44;;;;;;;1.10;0.85;;;8.40;99.90;;;;;;4994493;28;20807;-82
2021/12/18 12:19:10;;;;;;;2.08;1.27;;;8.30;99.90;;;;;;4975489;28;20085;-82
2021/12/18 12:21:56;;;;;;;2.13;1.05;;;8.30;99.90;;;;;;4993238;28;20053;-81
2021/12/18 12:24:24;;;;;;;;;;;8.20;99.90;;;;;;4994047;28;20034;-82
2021/12/18 12:26:51;;;;;;;1.27;1.17;;;8.20;99.90;;;;;;4993939;28;19945;-82
2021/12/18 12:29:18;;;;;;;3.03;1.00;;;8.10;99.90;;;;;;4993597;28;20371;-81
2021/12/18 12:32:07;;;;;;;1.85;1.10;;;8.10;99.90;;;;;;4993974;28;20417;-82
2021/12/18 12:34:35;;;;;;;1.40;1.02;;;8.10;99.90;;;;;;4993764;28;20030;-82
2021/12/18 12:37:35;;;;;;;1.35;1.23;;;8.00;99.90;;;;;;4992523;28;20034;-82
2021/12/18 12:40:10;;;;;;;1.48;1.20;;;8.00;99.90;;;;;;4992164;28;20045;-82
2021/12/18 12:42:38;;;;;;;1.13;1.13;;;8.00;99.90;;;;;;4994861;28;20058;-82
2021/12/18 12:45:11;;;;;;;1.00;1.00;;;8.00;99.90;;;;;;4982278;28;20081;-82
2021/12/18 12:47:40;;;;;;;1.02;1.02;;;8.10;99.90;;;;;;4987139;28;20026;-82
2021/12/18 12:50:12;;;;;;;1.52;1.38;;;8.00;99.90;;;;;;4973786;28;20126;-82
2021/12/18 12:52:59;;;;;;;1.50;1.40;;;8.00;99.90;;;;;;4990642;28;20032;-82
2021/12/18 12:55:27;;;;;;;1.15;0.95;;;8.10;99.90;;;;;;4974671;28;20045;-82
2021/12/18 12:58:02;;;;;;;1.17;1.17;;;8.10;99.90;;;;;;4976120;28;20101;-82
2021/12/18 13:00:27;;;;;;;1.77;1.20;;;8.10;99.90;;;;;;4989442;28;20505;-82
2021/12/18 13:03:07;;;;;;;1.38;1.27;;;8.20;99.90;;;;;;4974520;28;20023;-82
2021/12/18 13:05:57;;;;;;;4.40;1.20;;;8.20;99.90;;;;;;4974796;28;20109;-83
2021/12/18 13:08:24;;;;;;;0.80;0.80;;;8.20;99.90;;;;;;4975089;28;20034;-82
2021/12/18 13:10:54;;;;;;;1.00;1.00;;;8.20;99.90;;;;;;4974236;28;20479;-82
2021/12/18 13:13:24;;;;;;;1.27;1.17;;;8.20;99.90;;;;;;4975375;28;20086;-82
2021/12/18 13:16:11;;;;;;;0.98;0.98;;;8.30;99.90;;;;;;4993675;28;20026;-84
2021/12/18 13:18:57;;;;;;;1.10;1.00;;;8.20;99.90;;;;;;4993199;28;20014;-83
2021/12/18 13:21:30;;;;;;;1.30;1.08;;;8.30;99.90;;;;;;4992004;28;20061;-83
2021/12/18 13:24:03;;;;;;;2.05;1.70;;;8.30;99.90;;;;;;4989949;28;20541;-82
2021/12/18 13:26:44;;;;;;;2.45;1.58;;;8.40;99.90;;;;;;4985565;28;20031;-83
2021/12/18 13:29:13;;;;;;;1.70;1.23;;;8.40;99.90;;;;;;4974210;28;20019;-83
2021/12/18 13:31:49;;;;;;;1.85;1.13;;;8.30;99.90;;;;;;5005359;28;20027;-83
2021/12/18 13:34:19;;;;;;;1.38;1.02;;;8.30;99.90;;;;;;4974193;28;20019;-83
2021/12/18 13:37:03;;;;;;;1.23;1.10;;;8.30;99.90;;;;;;4974102;28;20027;-83
2021/12/18 13:39:33;;;;;;;1.80;1.25;;;8.40;99.90;;;;;;4974128;28;20038;-83
2021/12/18 13:42:06;;;;;;;0.70;0.65;;;8.40;99.90;;;;;;4988146;28;20034;-83